sensor_id;sensor_type;location;lat;lon;timestamp;P1;durP1;ratioP1;P2;durP2;ratioP2
32297;SDS011;18782;48.984;8.548;2023-04-25T00:00:19;2.22;;;1.48;;
32297;SDS011;18782;48.984;8.548;2023-04-25T00:02:47;2.40;;;1.58;;
32297;SDS011;18782;48.984;8.548;2023-04-25T00:05:16;2.90;;;1.63;;
32297;SDS011;18782;48.984;8.548;2023-04-25T00:07:45;2.22;;;1.40;;
32297;SDS011;18782;48.984;8.548;2023-04-25T00:10:13;3.15;;;1.48;;
32297;SDS011;18782;48.984;8.548;2023-04-25T00:12:41;3.58;;;1.70;;
32297;SDS011;18782;48.984;8.548;2023-04-25T00:15:09;1.80;;;1.38;;
32297;SDS011;18782;48.984;8.548;2023-04-25T00:17:37;2.20;;;1.50;;
32297;SDS011;18782;48.984;8.548;2023-04-25T00:20:05;3.72;;;1.65;;
32297;SDS011;18782;48.984;8.548;2023-04-25T00:22:36;4.55;;;1.55;;
32297;SDS011;18782;48.984;8.548;2023-04-25T00:25:04;2.03;;;1.27;;
32297;SDS011;18782;48.984;8.548;2023-04-25T00:27:33;2.20;;;1.60;;
32297;SDS011;18782;48.984;8.548;2023-04-25T00:30:01;4.88;;;1.65;;
32297;SDS011;18782;48.984;8.548;2023-04-25T00:32:28;2.50;;;1.40;;
32297;SDS011;18782;48.984;8.548;2023-04-25T00:34:56;3.17;;;1.30;;
32297;SDS011;18782;48.984;8.548;2023-04-25T00:37:24;2.80;;;1.30;;
32297;SDS011;18782;48.984;8.548;2023-04-25T00:39:53;2.35;;;1.50;;
32297;SDS011;18782;48.984;8.548;2023-04-25T00:42:22;2.63;;;1.38;;
32297;SDS011;18782;48.984;8.548;2023-04-25T00:44:49;3.30;;;1.67;;
32297;SDS011;18782;48.984;8.548;2023-04-25T00:47:18;4.00;;;1.55;;
32297;SDS011;18782;48.984;8.548;2023-04-25T00:49:46;2.08;;;1.42;;
32297;SDS011;18782;48.984;8.548;2023-04-25T00:52:14;2.60;;;1.25;;
32297;SDS011;18782;48.984;8.548;2023-04-25T00:54:41;4.53;;;1.70;;
32297;SDS011;18782;48.984;8.548;2023-04-25T00:57:11;2.20;;;1.42;;
32297;SDS011;18782;48.984;8.548;2023-04-25T00:59:39;2.80;;;1.50;;
32297;SDS011;18782;48.984;8.548;2023-04-25T01:02:11;2.65;;;1.60;;
32297;SDS011;18782;48.984;8.548;2023-04-25T01:04:39;1.90;;;1.33;;
32297;SDS011;18782;48.984;8.548;2023-04-25T01:07:07;3.08;;;1.40;;
32297;SDS011;18782;48.984;8.548;2023-04-25T01:09:35;2.25;;;1.70;;
32297;SDS011;18782;48.984;8.548;2023-04-25T01:12:03;1.40;;;1.20;;
32297;SDS011;18782;48.984;8.548;2023-04-25T01:14:32;3.85;;;1.17;;
32297;SDS011;18782;48.984;8.548;2023-04-25T01:17:00;2.33;;;1.55;;
32297;SDS011;18782;48.984;8.548;2023-04-25T01:19:28;2.22;;;1.42;;
32297;SDS011;18782;48.984;8.548;2023-04-25T01:21:58;5.25;;;1.73;;
32297;SDS011;18782;48.984;8.548;2023-04-25T01:24:26;2.00;;;1.52;;
32297;SDS011;18782;48.984;8.548;2023-04-25T01:26:55;4.05;;;1.60;;
32297;SDS011;18782;48.984;8.548;2023-04-25T01:29:24;1.73;;;1.20;;
32297;SDS011;18782;48.984;8.548;2023-04-25T01:31:52;3.45;;;1.50;;
32297;SDS011;18782;48.984;8.548;2023-04-25T01:34:20;7.63;;;3.88;;
32297;SDS011;18782;48.984;8.548;2023-04-25T01:36:49;4.55;;;2.90;;
32297;SDS011;18782;48.984;8.548;2023-04-25T01:39:18;3.63;;;1.88;;
32297;SDS011;18782;48.984;8.548;2023-04-25T01:41:47;3.15;;;1.90;;
32297;SDS011;18782;48.984;8.548;2023-04-25T01:48:27;2.63;;;1.58;;
32297;SDS011;18782;48.984;8.548;2023-04-25T01:50:55;3.20;;;2.00;;
32297;SDS011;18782;48.984;8.548;2023-04-25T01:53:22;3.53;;;1.50;;
32297;SDS011;18782;48.984;8.548;2023-04-25T01:55:53;3.47;;;1.63;;
32297;SDS011;18782;48.984;8.548;2023-04-25T01:58:24;3.25;;;1.85;;
32297;SDS011;18782;48.984;8.548;2023-04-25T02:01:02;2.60;;;1.63;;
32297;SDS011;18782;48.984;8.548;2023-04-25T02:03:38;4.30;;;1.98;;
32297;SDS011;18782;48.984;8.548;2023-04-25T02:06:12;3.42;;;1.75;;
32297;SDS011;18782;48.984;8.548;2023-04-25T02:08:43;2.67;;;1.70;;
32297;SDS011;18782;48.984;8.548;2023-04-25T02:11:13;3.85;;;2.17;;
32297;SDS011;18782;48.984;8.548;2023-04-25T02:13:47;2.55;;;1.90;;
32297;SDS011;18782;48.984;8.548;2023-04-25T02:16:23;2.30;;;1.75;;
32297;SDS011;18782;48.984;8.548;2023-04-25T02:18:51;2.90;;;1.90;;
32297;SDS011;18782;48.984;8.548;2023-04-25T02:21:20;5.13;;;2.28;;
32297;SDS011;18782;48.984;8.548;2023-04-25T02:23:47;3.03;;;1.80;;
32297;SDS011;18782;48.984;8.548;2023-04-25T02:26:20;2.92;;;2.00;;
32297;SDS011;18782;48.984;8.548;2023-04-25T02:28:50;2.90;;;2.10;;
32297;SDS011;18782;48.984;8.548;2023-04-25T02:31:18;2.33;;;2.00;;
32297;SDS011;18782;48.984;8.548;2023-04-25T02:33:46;3.15;;;1.90;;
32297;SDS011;18782;48.984;8.548;2023-04-25T02:36:15;2.72;;;2.05;;
32297;SDS011;18782;48.984;8.548;2023-04-25T02:38:42;3.03;;;1.65;;
32297;SDS011;18782;48.984;8.548;2023-04-25T02:41:10;3.42;;;2.05;;
32297;SDS011;18782;48.984;8.548;2023-04-25T02:43:39;3.83;;;2.25;;
32297;SDS011;18782;48.984;8.548;2023-04-25T02:46:06;3.40;;;2.30;;
32297;SDS011;18782;48.984;8.548;2023-04-25T02:48:34;4.28;;;2.17;;
32297;SDS011;18782;48.984;8.548;2023-04-25T02:51:02;3.88;;;2.10;;
32297;SDS011;18782;48.984;8.548;2023-04-25T02:53:30;3.20;;;2.17;;
32297;SDS011;18782;48.984;8.548;2023-04-25T02:55:57;3.03;;;2.25;;
32297;SDS011;18782;48.984;8.548;2023-04-25T02:58:25;4.03;;;2.08;;
32297;SDS011;18782;48.984;8.548;2023-04-25T03:00:54;2.15;;;1.77;;
32297;SDS011;18782;48.984;8.548;2023-04-25T03:03:22;2.40;;;1.90;;
32297;SDS011;18782;48.984;8.548;2023-04-25T03:05:51;2.67;;;2.13;;
32297;SDS011;18782;48.984;8.548;2023-04-25T03:08:23;2.72;;;2.08;;
32297;SDS011;18782;48.984;8.548;2023-04-25T03:10:53;2.80;;;2.10;;
32297;SDS011;18782;48.984;8.548;2023-04-25T03:13:22;2.20;;;1.90;;
32297;SDS011;18782;48.984;8.548;2023-04-25T03:15:49;3.45;;;2.47;;
32297;SDS011;18782;48.984;8.548;2023-04-25T03:18:19;2.78;;;2.08;;
32297;SDS011;18782;48.984;8.548;2023-04-25T03:20:46;2.83;;;2.40;;
32297;SDS011;18782;48.984;8.548;2023-04-25T03:23:14;3.42;;;1.85;;
32297;SDS011;18782;48.984;8.548;2023-04-25T03:25:42;3.60;;;2.20;;
32297;SDS011;18782;48.984;8.548;2023-04-25T03:28:09;2.95;;;2.15;;
32297;SDS011;18782;48.984;8.548;2023-04-25T03:30:37;3.95;;;2.10;;
32297;SDS011;18782;48.984;8.548;2023-04-25T03:33:05;3.47;;;2.60;;
32297;SDS011;18782;48.984;8.548;2023-04-25T03:35:34;3.92;;;2.10;;
32297;SDS011;18782;48.984;8.548;2023-04-25T03:38:02;2.90;;;2.28;;
32297;SDS011;18782;48.984;8.548;2023-04-25T03:40:34;3.38;;;2.28;;
32297;SDS011;18782;48.984;8.548;2023-04-25T03:43:16;2.35;;;1.90;;
32297;SDS011;18782;48.984;8.548;2023-04-25T03:45:51;2.70;;;1.90;;
32297;SDS011;18782;48.984;8.548;2023-04-25T03:48:21;3.42;;;2.10;;
32297;SDS011;18782;48.984;8.548;2023-04-25T03:50:52;2.53;;;2.10;;
32297;SDS011;18782;48.984;8.548;2023-04-25T03:53:20;2.88;;;2.25;;
32297;SDS011;18782;48.984;8.548;2023-04-25T03:56:06;3.35;;;2.00;;
32297;SDS011;18782;48.984;8.548;2023-04-25T03:58:36;2.83;;;1.75;;
32297;SDS011;18782;48.984;8.548;2023-04-25T04:01:04;3.55;;;1.90;;
32297;SDS011;18782;48.984;8.548;2023-04-25T04:03:36;2.88;;;2.00;;
32297;SDS011;18782;48.984;8.548;2023-04-25T04:06:07;2.85;;;2.15;;
32297;SDS011;18782;48.984;8.548;2023-04-25T04:08:38;3.87;;;2.23;;
32297;SDS011;18782;48.984;8.548;2023-04-25T04:11:07;2.80;;;1.92;;
32297;SDS011;18782;48.984;8.548;2023-04-25T04:13:35;2.88;;;2.00;;
32297;SDS011;18782;48.984;8.548;2023-04-25T04:16:04;3.80;;;2.05;;
32297;SDS011;18782;48.984;8.548;2023-04-25T04:18:33;2.95;;;1.90;;
32297;SDS011;18782;48.984;8.548;2023-04-25T04:21:00;2.92;;;1.88;;
32297;SDS011;18782;48.984;8.548;2023-04-25T04:23:32;4.72;;;3.08;;
32297;SDS011;18782;48.984;8.548;2023-04-25T04:26:02;3.67;;;2.90;;
32297;SDS011;18782;48.984;8.548;2023-04-25T04:28:57;5.97;;;2.97;;
32297;SDS011;18782;48.984;8.548;2023-04-25T04:31:36;3.45;;;2.17;;
32297;SDS011;18782;48.984;8.548;2023-04-25T04:34:04;2.50;;;2.00;;
32297;SDS011;18782;48.984;8.548;2023-04-25T04:36:33;2.80;;;2.17;;
32297;SDS011;18782;48.984;8.548;2023-04-25T04:39:03;2.85;;;2.20;;
32297;SDS011;18782;48.984;8.548;2023-04-25T04:41:42;5.43;;;2.28;;
32297;SDS011;18782;48.984;8.548;2023-04-25T04:44:14;2.72;;;1.95;;
32297;SDS011;18782;48.984;8.548;2023-04-25T04:46:48;3.22;;;2.38;;
32297;SDS011;18782;48.984;8.548;2023-04-25T04:49:25;3.33;;;2.20;;
32297;SDS011;18782;48.984;8.548;2023-04-25T04:52:17;2.70;;;2.22;;
32297;SDS011;18782;48.984;8.548;2023-04-25T04:54:51;2.50;;;2.08;;
32297;SDS011;18782;48.984;8.548;2023-04-25T04:57:33;2.55;;;2.28;;
32297;SDS011;18782;48.984;8.548;2023-04-25T05:00:25;2.83;;;1.73;;
32297;SDS011;18782;48.984;8.548;2023-04-25T05:03:30;2.70;;;1.75;;
32297;SDS011;18782;48.984;8.548;2023-04-25T05:06:01;3.10;;;2.20;;
32297;SDS011;18782;48.984;8.548;2023-04-25T05:08:42;2.78;;;2.22;;
32297;SDS011;18782;48.984;8.548;2023-04-25T05:11:31;2.38;;;1.85;;
32297;SDS011;18782;48.984;8.548;2023-04-25T05:14:17;3.38;;;1.95;;
32297;SDS011;18782;48.984;8.548;2023-04-25T05:16:44;2.65;;;2.17;;
32297;SDS011;18782;48.984;8.548;2023-04-25T05:19:20;2.00;;;1.67;;
32297;SDS011;18782;48.984;8.548;2023-04-25T05:22:08;5.53;;;2.00;;
32297;SDS011;18782;48.984;8.548;2023-04-25T05:24:54;3.45;;;2.88;;
32297;SDS011;18782;48.984;8.548;2023-04-25T05:27:46;2.58;;;1.73;;
32297;SDS011;18782;48.984;8.548;2023-04-25T05:30:37;3.58;;;1.77;;
32297;SDS011;18782;48.984;8.548;2023-04-25T05:33:09;7.65;;;2.55;;
32297;SDS011;18782;48.984;8.548;2023-04-25T05:35:38;2.13;;;1.77;;
32297;SDS011;18782;48.984;8.548;2023-04-25T05:38:05;2.42;;;1.70;;
32297;SDS011;18782;48.984;8.548;2023-04-25T05:40:53;2.50;;;1.63;;
32297;SDS011;18782;48.984;8.548;2023-04-25T05:43:40;2.85;;;2.38;;
32297;SDS011;18782;48.984;8.548;2023-04-25T05:46:31;3.03;;;2.03;;
32297;SDS011;18782;48.984;8.548;2023-04-25T05:49:13;3.15;;;1.58;;
32297;SDS011;18782;48.984;8.548;2023-04-25T05:52:17;7.63;;;4.35;;
32297;SDS011;18782;48.984;8.548;2023-04-25T05:54:59;8.32;;;5.55;;
32297;SDS011;18782;48.984;8.548;2023-04-25T05:57:29;6.10;;;4.38;;
32297;SDS011;18782;48.984;8.548;2023-04-25T05:59:59;4.32;;;3.03;;
32297;SDS011;18782;48.984;8.548;2023-04-25T06:02:38;2.40;;;1.73;;
32297;SDS011;18782;48.984;8.548;2023-04-25T06:05:08;2.42;;;1.58;;
32297;SDS011;18782;48.984;8.548;2023-04-25T06:07:36;1.95;;;1.70;;
32297;SDS011;18782;48.984;8.548;2023-04-25T06:10:04;2.78;;;1.95;;
32297;SDS011;18782;48.984;8.548;2023-04-25T06:12:33;2.10;;;1.80;;
32297;SDS011;18782;48.984;8.548;2023-04-25T06:15:04;2.03;;;1.63;;
32297;SDS011;18782;48.984;8.548;2023-04-25T06:17:52;2.42;;;1.80;;
32297;SDS011;18782;48.984;8.548;2023-04-25T06:20:20;3.70;;;1.80;;
32297;SDS011;18782;48.984;8.548;2023-04-25T06:22:51;3.65;;;1.92;;
32297;SDS011;18782;48.984;8.548;2023-04-25T06:25:24;14.00;;;7.78;;
32297;SDS011;18782;48.984;8.548;2023-04-25T06:27:52;3.35;;;2.78;;
32297;SDS011;18782;48.984;8.548;2023-04-25T06:30:22;4.15;;;3.13;;
32297;SDS011;18782;48.984;8.548;2023-04-25T06:32:56;3.67;;;2.50;;
32297;SDS011;18782;48.984;8.548;2023-04-25T06:35:24;3.58;;;2.47;;
32297;SDS011;18782;48.984;8.548;2023-04-25T06:37:52;3.22;;;2.50;;
32297;SDS011;18782;48.984;8.548;2023-04-25T06:40:22;3.70;;;2.25;;
32297;SDS011;18782;48.984;8.548;2023-04-25T06:42:50;2.17;;;1.70;;
32297;SDS011;18782;48.984;8.548;2023-04-25T06:45:39;4.40;;;1.98;;
32297;SDS011;18782;48.984;8.548;2023-04-25T06:48:07;5.03;;;2.10;;
32297;SDS011;18782;48.984;8.548;2023-04-25T06:50:36;3.83;;;2.30;;
32297;SDS011;18782;48.984;8.548;2023-04-25T06:53:04;3.50;;;2.00;;
32297;SDS011;18782;48.984;8.548;2023-04-25T06:55:32;2.90;;;2.00;;
32297;SDS011;18782;48.984;8.548;2023-04-25T06:58:17;3.20;;;2.40;;
32297;SDS011;18782;48.984;8.548;2023-04-25T07:01:03;3.20;;;2.35;;
32297;SDS011;18782;48.984;8.548;2023-04-25T07:03:31;3.05;;;2.33;;
32297;SDS011;18782;48.984;8.548;2023-04-25T07:06:05;3.08;;;2.20;;
32297;SDS011;18782;48.984;8.548;2023-04-25T07:08:33;4.07;;;2.35;;
32297;SDS011;18782;48.984;8.548;2023-04-25T07:11:01;2.95;;;2.40;;
32297;SDS011;18782;48.984;8.548;2023-04-25T07:13:29;4.60;;;2.92;;
32297;SDS011;18782;48.984;8.548;2023-04-25T07:15:57;3.53;;;2.33;;
32297;SDS011;18782;48.984;8.548;2023-04-25T07:18:28;3.47;;;2.53;;
32297;SDS011;18782;48.984;8.548;2023-04-25T07:20:56;4.43;;;2.90;;
32297;SDS011;18782;48.984;8.548;2023-04-25T07:23:23;3.20;;;2.67;;
32297;SDS011;18782;48.984;8.548;2023-04-25T07:25:54;3.28;;;2.63;;
32297;SDS011;18782;48.984;8.548;2023-04-25T07:28:24;4.20;;;3.38;;
32297;SDS011;18782;48.984;8.548;2023-04-25T07:30:52;4.72;;;3.20;;
32297;SDS011;18782;48.984;8.548;2023-04-25T07:33:19;4.55;;;3.13;;
32297;SDS011;18782;48.984;8.548;2023-04-25T07:35:48;5.68;;;3.03;;
32297;SDS011;18782;48.984;8.548;2023-04-25T07:38:17;4.47;;;2.83;;
32297;SDS011;18782;48.984;8.548;2023-04-25T07:40:46;4.88;;;2.88;;
32297;SDS011;18782;48.984;8.548;2023-04-25T07:43:15;2.75;;;2.10;;
32297;SDS011;18782;48.984;8.548;2023-04-25T07:45:57;5.18;;;2.97;;
32297;SDS011;18782;48.984;8.548;2023-04-25T07:48:29;3.90;;;2.83;;
32297;SDS011;18782;48.984;8.548;2023-04-25T07:50:58;3.42;;;2.75;;
32297;SDS011;18782;48.984;8.548;2023-04-25T07:53:26;3.95;;;2.88;;
32297;SDS011;18782;48.984;8.548;2023-04-25T07:55:58;4.30;;;2.65;;
32297;SDS011;18782;48.984;8.548;2023-04-25T07:58:29;3.63;;;2.70;;
32297;SDS011;18782;48.984;8.548;2023-04-25T08:01:00;2.67;;;2.33;;
32297;SDS011;18782;48.984;8.548;2023-04-25T08:03:33;3.72;;;2.67;;
32297;SDS011;18782;48.984;8.548;2023-04-25T08:06:06;5.10;;;3.55;;
32297;SDS011;18782;48.984;8.548;2023-04-25T08:08:43;4.22;;;3.55;;
32297;SDS011;18782;48.984;8.548;2023-04-25T08:11:15;4.55;;;3.53;;
32297;SDS011;18782;48.984;8.548;2023-04-25T08:13:43;4.90;;;3.50;;
32297;SDS011;18782;48.984;8.548;2023-04-25T08:16:11;4.75;;;3.50;;
32297;SDS011;18782;48.984;8.548;2023-04-25T08:18:39;4.30;;;3.55;;
32297;SDS011;18782;48.984;8.548;2023-04-25T08:21:09;5.43;;;4.00;;
32297;SDS011;18782;48.984;8.548;2023-04-25T08:23:38;6.50;;;4.22;;
32297;SDS011;18782;48.984;8.548;2023-04-25T08:26:20;5.00;;;4.27;;
32297;SDS011;18782;48.984;8.548;2023-04-25T08:29:15;4.28;;;3.70;;
32297;SDS011;18782;48.984;8.548;2023-04-25T08:31:43;5.07;;;3.97;;
32297;SDS011;18782;48.984;8.548;2023-04-25T08:34:12;6.13;;;4.50;;
32297;SDS011;18782;48.984;8.548;2023-04-25T08:36:45;5.30;;;4.75;;
32297;SDS011;18782;48.984;8.548;2023-04-25T08:39:31;6.80;;;4.85;;
32297;SDS011;18782;48.984;8.548;2023-04-25T08:42:17;5.88;;;5.25;;
32297;SDS011;18782;48.984;8.548;2023-04-25T08:44:46;6.43;;;5.00;;
32297;SDS011;18782;48.984;8.548;2023-04-25T08:47:15;7.63;;;5.30;;
32297;SDS011;18782;48.984;8.548;2023-04-25T08:49:54;5.90;;;5.30;;
32297;SDS011;18782;48.984;8.548;2023-04-25T08:52:23;8.55;;;5.57;;
32297;SDS011;18782;48.984;8.548;2023-04-25T08:54:54;7.43;;;5.85;;
32297;SDS011;18782;48.984;8.548;2023-04-25T08:57:26;7.82;;;5.72;;
32297;SDS011;18782;48.984;8.548;2023-04-25T08:59:55;7.38;;;6.55;;
32297;SDS011;18782;48.984;8.548;2023-04-25T09:02:24;6.88;;;5.63;;
32297;SDS011;18782;48.984;8.548;2023-04-25T09:04:52;8.23;;;6.18;;
32297;SDS011;18782;48.984;8.548;2023-04-25T09:07:21;6.72;;;6.07;;
32297;SDS011;18782;48.984;8.548;2023-04-25T09:09:53;7.57;;;6.78;;
32297;SDS011;18782;48.984;8.548;2023-04-25T09:12:21;7.57;;;5.97;;
32297;SDS011;18782;48.984;8.548;2023-04-25T09:15:03;6.90;;;6.00;;
32297;SDS011;18782;48.984;8.548;2023-04-25T09:18:05;8.68;;;6.15;;
32297;SDS011;18782;48.984;8.548;2023-04-25T09:20:40;7.72;;;6.28;;
32297;SDS011;18782;48.984;8.548;2023-04-25T09:23:14;6.78;;;6.05;;
32297;SDS011;18782;48.984;8.548;2023-04-25T09:25:42;8.10;;;6.07;;
32297;SDS011;18782;48.984;8.548;2023-04-25T09:28:10;7.78;;;6.68;;
32297;SDS011;18782;48.984;8.548;2023-04-25T09:30:38;7.18;;;6.32;;
32297;SDS011;18782;48.984;8.548;2023-04-25T09:33:13;7.40;;;6.60;;
32297;SDS011;18782;48.984;8.548;2023-04-25T09:35:46;4.78;;;3.90;;
32297;SDS011;18782;48.984;8.548;2023-04-25T09:38:41;4.10;;;3.70;;
32297;SDS011;18782;48.984;8.548;2023-04-25T09:41:31;3.92;;;3.45;;
32297;SDS011;18782;48.984;8.548;2023-04-25T09:44:01;5.35;;;3.95;;
32297;SDS011;18782;48.984;8.548;2023-04-25T09:46:34;13.40;;;7.67;;
32297;SDS011;18782;48.984;8.548;2023-04-25T09:49:06;6.93;;;3.42;;
32297;SDS011;18782;48.984;8.548;2023-04-25T09:51:42;4.50;;;3.35;;
32297;SDS011;18782;48.984;8.548;2023-04-25T09:54:23;3.80;;;3.20;;
32297;SDS011;18782;48.984;8.548;2023-04-25T09:57:02;4.28;;;3.20;;
32297;SDS011;18782;48.984;8.548;2023-04-25T09:59:39;4.13;;;2.80;;
32297;SDS011;18782;48.984;8.548;2023-04-25T10:02:10;5.95;;;3.55;;
32297;SDS011;18782;48.984;8.548;2023-04-25T10:04:39;10.00;;;6.85;;
32297;SDS011;18782;48.984;8.548;2023-04-25T10:07:18;7.93;;;4.95;;
32297;SDS011;18782;48.984;8.548;2023-04-25T10:09:48;5.20;;;3.00;;
32297;SDS011;18782;48.984;8.548;2023-04-25T10:12:17;4.65;;;2.75;;
32297;SDS011;18782;48.984;8.548;2023-04-25T10:14:45;4.50;;;3.45;;
32297;SDS011;18782;48.984;8.548;2023-04-25T10:17:13;5.03;;;3.22;;
32297;SDS011;18782;48.984;8.548;2023-04-25T10:19:41;4.63;;;3.40;;
32297;SDS011;18782;48.984;8.548;2023-04-25T10:22:11;11.57;;;6.80;;
32297;SDS011;18782;48.984;8.548;2023-04-25T10:24:42;6.10;;;4.20;;
32297;SDS011;18782;48.984;8.548;2023-04-25T10:27:13;6.60;;;3.80;;
32297;SDS011;18782;48.984;8.548;2023-04-25T10:29:41;5.10;;;3.78;;
32297;SDS011;18782;48.984;8.548;2023-04-25T10:32:10;4.80;;;3.63;;
32297;SDS011;18782;48.984;8.548;2023-04-25T10:34:40;5.75;;;4.07;;
32297;SDS011;18782;48.984;8.548;2023-04-25T10:37:09;4.70;;;4.10;;
32297;SDS011;18782;48.984;8.548;2023-04-25T10:39:40;6.70;;;3.90;;
32297;SDS011;18782;48.984;8.548;2023-04-25T10:42:09;6.40;;;4.05;;
32297;SDS011;18782;48.984;8.548;2023-04-25T10:44:39;7.35;;;5.20;;
32297;SDS011;18782;48.984;8.548;2023-04-25T10:47:07;6.45;;;4.65;;
32297;SDS011;18782;48.984;8.548;2023-04-25T10:49:41;7.03;;;4.60;;
32297;SDS011;18782;48.984;8.548;2023-04-25T10:52:16;5.93;;;4.38;;
32297;SDS011;18782;48.984;8.548;2023-04-25T10:54:48;8.90;;;5.97;;
32297;SDS011;18782;48.984;8.548;2023-04-25T10:57:29;6.72;;;5.38;;
32297;SDS011;18782;48.984;8.548;2023-04-25T10:59:59;8.23;;;5.45;;
32297;SDS011;18782;48.984;8.548;2023-04-25T11:02:40;8.25;;;4.53;;
32297;SDS011;18782;48.984;8.548;2023-04-25T11:05:09;7.15;;;5.05;;
32297;SDS011;18782;48.984;8.548;2023-04-25T11:07:38;8.48;;;4.75;;
32297;SDS011;18782;48.984;8.548;2023-04-25T11:10:25;5.40;;;4.40;;
32297;SDS011;18782;48.984;8.548;2023-04-25T11:12:53;5.82;;;4.25;;
32297;SDS011;18782;48.984;8.548;2023-04-25T11:15:22;6.22;;;4.32;;
32297;SDS011;18782;48.984;8.548;2023-04-25T11:17:50;6.50;;;4.22;;
32297;SDS011;18782;48.984;8.548;2023-04-25T11:20:18;5.95;;;4.47;;
32297;SDS011;18782;48.984;8.548;2023-04-25T11:22:46;4.25;;;3.42;;
32297;SDS011;18782;48.984;8.548;2023-04-25T11:25:17;4.25;;;3.15;;
32297;SDS011;18782;48.984;8.548;2023-04-25T11:27:49;4.63;;;3.30;;
32297;SDS011;18782;48.984;8.548;2023-04-25T11:30:18;4.25;;;3.55;;
32297;SDS011;18782;48.984;8.548;2023-04-25T11:32:48;4.32;;;3.10;;
32297;SDS011;18782;48.984;8.548;2023-04-25T11:35:18;4.40;;;3.53;;
32297;SDS011;18782;48.984;8.548;2023-04-25T11:37:46;4.90;;;3.85;;
32297;SDS011;18782;48.984;8.548;2023-04-25T11:40:14;6.75;;;4.03;;
32297;SDS011;18782;48.984;8.548;2023-04-25T11:42:43;8.55;;;5.35;;
32297;SDS011;18782;48.984;8.548;2023-04-25T11:45:12;4.57;;;3.22;;
32297;SDS011;18782;48.984;8.548;2023-04-25T11:47:41;4.28;;;2.60;;
32297;SDS011;18782;48.984;8.548;2023-04-25T11:50:10;5.53;;;3.20;;
32297;SDS011;18782;48.984;8.548;2023-04-25T11:52:41;4.40;;;3.30;;
32297;SDS011;18782;48.984;8.548;2023-04-25T11:55:12;4.20;;;3.28;;
32297;SDS011;18782;48.984;8.548;2023-04-25T11:57:41;5.20;;;3.40;;
32297;SDS011;18782;48.984;8.548;2023-04-25T12:00:10;3.70;;;3.25;;
32297;SDS011;18782;48.984;8.548;2023-04-25T12:02:44;3.47;;;3.00;;
32297;SDS011;18782;48.984;8.548;2023-04-25T12:05:15;4.72;;;3.28;;
32297;SDS011;18782;48.984;8.548;2023-04-25T12:07:46;4.18;;;2.78;;
32297;SDS011;18782;48.984;8.548;2023-04-25T12:10:14;3.55;;;2.55;;
32297;SDS011;18782;48.984;8.548;2023-04-25T12:12:44;5.13;;;3.40;;
32297;SDS011;18782;48.984;8.548;2023-04-25T12:15:13;4.10;;;3.25;;
32297;SDS011;18782;48.984;8.548;2023-04-25T12:17:44;6.43;;;4.05;;
32297;SDS011;18782;48.984;8.548;2023-04-25T12:20:13;6.38;;;4.45;;
32297;SDS011;18782;48.984;8.548;2023-04-25T12:22:44;7.43;;;4.25;;
32297;SDS011;18782;48.984;8.548;2023-04-25T12:25:13;7.28;;;4.88;;
32297;SDS011;18782;48.984;8.548;2023-04-25T12:28:11;8.73;;;4.72;;
32297;SDS011;18782;48.984;8.548;2023-04-25T12:30:55;6.00;;;4.95;;
32297;SDS011;18782;48.984;8.548;2023-04-25T12:33:25;10.18;;;6.25;;
32297;SDS011;18782;48.984;8.548;2023-04-25T12:35:53;7.10;;;5.13;;
32297;SDS011;18782;48.984;8.548;2023-04-25T12:38:26;11.50;;;5.55;;
32297;SDS011;18782;48.984;8.548;2023-04-25T12:40:55;7.72;;;5.38;;
32297;SDS011;18782;48.984;8.548;2023-04-25T12:43:23;8.40;;;4.88;;
32297;SDS011;18782;48.984;8.548;2023-04-25T12:45:52;8.85;;;5.30;;
32297;SDS011;18782;48.984;8.548;2023-04-25T12:48:21;8.05;;;4.95;;
32297;SDS011;18782;48.984;8.548;2023-04-25T12:50:50;7.75;;;4.93;;
32297;SDS011;18782;48.984;8.548;2023-04-25T12:53:18;8.18;;;4.18;;
32297;SDS011;18782;48.984;8.548;2023-04-25T12:55:48;7.93;;;4.85;;
32297;SDS011;18782;48.984;8.548;2023-04-25T12:58:17;7.30;;;4.53;;
32297;SDS011;18782;48.984;8.548;2023-04-25T13:00:46;6.57;;;4.07;;
32297;SDS011;18782;48.984;8.548;2023-04-25T13:03:14;7.90;;;4.65;;
32297;SDS011;18782;48.984;8.548;2023-04-25T13:05:41;5.95;;;4.50;;
32297;SDS011;18782;48.984;8.548;2023-04-25T13:08:09;6.47;;;3.83;;
32297;SDS011;18782;48.984;8.548;2023-04-25T13:10:37;4.32;;;3.38;;
32297;SDS011;18782;48.984;8.548;2023-04-25T13:13:07;5.95;;;3.85;;
32297;SDS011;18782;48.984;8.548;2023-04-25T13:15:34;6.18;;;3.72;;
32297;SDS011;18782;48.984;8.548;2023-04-25T13:18:03;8.23;;;5.00;;
32297;SDS011;18782;48.984;8.548;2023-04-25T13:20:31;8.00;;;4.50;;
32297;SDS011;18782;48.984;8.548;2023-04-25T13:22:59;7.40;;;3.15;;
32297;SDS011;18782;48.984;8.548;2023-04-25T13:25:28;3.78;;;2.50;;
32297;SDS011;18782;48.984;8.548;2023-04-25T13:27:55;3.95;;;2.78;;
32297;SDS011;18782;48.984;8.548;2023-04-25T13:30:24;5.43;;;2.80;;
32297;SDS011;18782;48.984;8.548;2023-04-25T13:32:53;3.38;;;2.65;;
32297;SDS011;18782;48.984;8.548;2023-04-25T13:35:22;2.70;;;2.10;;
32297;SDS011;18782;48.984;8.548;2023-04-25T13:37:50;6.60;;;3.22;;
32297;SDS011;18782;48.984;8.548;2023-04-25T13:40:17;4.55;;;2.92;;
32297;SDS011;18782;48.984;8.548;2023-04-25T13:42:45;3.90;;;2.53;;
32297;SDS011;18782;48.984;8.548;2023-04-25T13:45:13;4.93;;;2.90;;
32297;SDS011;18782;48.984;8.548;2023-04-25T13:47:42;4.65;;;2.83;;
32297;SDS011;18782;48.984;8.548;2023-04-25T13:50:10;3.08;;;1.75;;
32297;SDS011;18782;48.984;8.548;2023-04-25T13:52:38;2.90;;;1.77;;
32297;SDS011;18782;48.984;8.548;2023-04-25T13:55:05;3.00;;;1.50;;
32297;SDS011;18782;48.984;8.548;2023-04-25T13:57:34;3.50;;;2.42;;
32297;SDS011;18782;48.984;8.548;2023-04-25T14:00:07;3.75;;;2.45;;
32297;SDS011;18782;48.984;8.548;2023-04-25T14:02:36;8.75;;;6.22;;
32297;SDS011;18782;48.984;8.548;2023-04-25T14:05:05;4.03;;;2.80;;
32297;SDS011;18782;48.984;8.548;2023-04-25T14:07:34;3.92;;;1.92;;
32297;SDS011;18782;48.984;8.548;2023-04-25T14:10:02;3.45;;;2.20;;
32297;SDS011;18782;48.984;8.548;2023-04-25T14:12:30;2.30;;;1.98;;
32297;SDS011;18782;48.984;8.548;2023-04-25T14:14:58;2.47;;;1.83;;
32297;SDS011;18782;48.984;8.548;2023-04-25T14:17:26;3.17;;;2.00;;
32297;SDS011;18782;48.984;8.548;2023-04-25T14:19:54;3.17;;;1.55;;
32297;SDS011;18782;48.984;8.548;2023-04-25T14:22:22;4.93;;;2.10;;
32297;SDS011;18782;48.984;8.548;2023-04-25T14:24:51;3.72;;;1.63;;
32297;SDS011;18782;48.984;8.548;2023-04-25T14:27:19;4.43;;;2.38;;
32297;SDS011;18782;48.984;8.548;2023-04-25T14:29:47;3.58;;;2.03;;
32297;SDS011;18782;48.984;8.548;2023-04-25T14:32:14;6.60;;;2.17;;
32297;SDS011;18782;48.984;8.548;2023-04-25T14:34:42;4.30;;;2.50;;
32297;SDS011;18782;48.984;8.548;2023-04-25T14:37:10;3.63;;;2.40;;
32297;SDS011;18782;48.984;8.548;2023-04-25T14:39:39;3.33;;;1.80;;
32297;SDS011;18782;48.984;8.548;2023-04-25T14:42:06;4.45;;;1.80;;
32297;SDS011;18782;48.984;8.548;2023-04-25T14:44:35;6.05;;;2.20;;
32297;SDS011;18782;48.984;8.548;2023-04-25T14:47:02;3.58;;;1.90;;
32297;SDS011;18782;48.984;8.548;2023-04-25T14:49:36;2.38;;;1.70;;
32297;SDS011;18782;48.984;8.548;2023-04-25T14:52:04;4.45;;;2.40;;
32297;SDS011;18782;48.984;8.548;2023-04-25T14:54:31;3.95;;;2.00;;
32297;SDS011;18782;48.984;8.548;2023-04-25T14:57:00;4.40;;;2.25;;
32297;SDS011;18782;48.984;8.548;2023-04-25T14:59:30;4.15;;;1.60;;
32297;SDS011;18782;48.984;8.548;2023-04-25T15:01:58;5.35;;;2.08;;
32297;SDS011;18782;48.984;8.548;2023-04-25T15:04:25;2.38;;;1.90;;
32297;SDS011;18782;48.984;8.548;2023-04-25T15:06:54;2.45;;;1.70;;
32297;SDS011;18782;48.984;8.548;2023-04-25T15:09:22;4.57;;;2.20;;
32297;SDS011;18782;48.984;8.548;2023-04-25T15:11:51;4.40;;;2.00;;
32297;SDS011;18782;48.984;8.548;2023-04-25T15:14:20;2.35;;;1.50;;
32297;SDS011;18782;48.984;8.548;2023-04-25T15:16:47;4.07;;;1.60;;